sensor_id;sensor_type;location;lat;lon;timestamp;P1;durP1;ratioP1;P2;durP2;ratioP2
24761;SDS011;12865;51.934;10.330;2022-08-21T00:01:20;5.80;;;5.10;;
24761;SDS011;12865;51.934;10.330;2022-08-21T00:04:08;5.30;;;4.90;;
24761;SDS011;12865;51.934;10.330;2022-08-21T00:06:55;5.65;;;5.00;;
24761;SDS011;12865;51.934;10.330;2022-08-21T00:09:41;7.20;;;5.25;;
24761;SDS011;12865;51.934;10.330;2022-08-21T00:12:26;5.38;;;4.88;;
24761;SDS011;12865;51.934;10.330;2022-08-21T00:15:20;5.68;;;4.90;;
24761;SDS011;12865;51.934;10.330;2022-08-21T00:18:12;5.65;;;4.95;;
24761;SDS011;12865;51.934;10.330;2022-08-21T00:20:58;7.47;;;5.07;;
24761;SDS011;12865;51.934;10.330;2022-08-21T00:23:44;5.95;;;5.25;;
24761;SDS011;12865;51.934;10.330;2022-08-21T00:26:30;6.00;;;4.95;;
24761;SDS011;12865;51.934;10.330;2022-08-21T00:29:15;5.35;;;4.85;;
24761;SDS011;12865;51.934;10.330;2022-08-21T00:32:01;5.22;;;4.82;;
24761;SDS011;12865;51.934;10.330;2022-08-21T00:34:47;5.40;;;4.55;;
24761;SDS011;12865;51.934;10.330;2022-08-21T00:37:33;7.00;;;4.63;;
24761;SDS011;12865;51.934;10.330;2022-08-21T00:40:21;7.07;;;4.88;;
24761;SDS011;12865;51.934;10.330;2022-08-21T00:43:12;4.63;;;4.30;;
24761;SDS011;12865;51.934;10.330;2022-08-21T00:46:00;5.15;;;4.65;;
24761;SDS011;12865;51.934;10.330;2022-08-21T00:48:47;6.03;;;4.20;;
24761;SDS011;12865;51.934;10.330;2022-08-21T00:51:40;5.05;;;4.65;;
24761;SDS011;12865;51.934;10.330;2022-08-21T00:54:33;5.10;;;4.70;;
24761;SDS011;12865;51.934;10.330;2022-08-21T00:57:21;4.68;;;4.25;;
24761;SDS011;12865;51.934;10.330;2022-08-21T01:00:13;4.95;;;4.55;;
24761;SDS011;12865;51.934;10.330;2022-08-21T01:03:04;6.13;;;4.13;;
24761;SDS011;12865;51.934;10.330;2022-08-21T01:05:52;4.63;;;4.15;;
24761;SDS011;12865;51.934;10.330;2022-08-21T01:08:38;4.60;;;4.20;;
24761;SDS011;12865;51.934;10.330;2022-08-21T01:11:24;4.65;;;4.25;;
24761;SDS011;12865;51.934;10.330;2022-08-21T01:14:10;4.40;;;3.95;;
24761;SDS011;12865;51.934;10.330;2022-08-21T01:16:58;4.00;;;3.63;;
24761;SDS011;12865;51.934;10.330;2022-08-21T01:19:45;4.57;;;4.18;;
24761;SDS011;12865;51.934;10.330;2022-08-21T01:22:31;4.32;;;3.90;;
24761;SDS011;12865;51.934;10.330;2022-08-21T01:25:17;5.63;;;4.75;;
24761;SDS011;12865;51.934;10.330;2022-08-21T01:28:13;5.38;;;4.88;;
24761;SDS011;12865;51.934;10.330;2022-08-21T01:30:59;8.07;;;4.75;;
24761;SDS011;12865;51.934;10.330;2022-08-21T01:33:48;6.00;;;4.63;;
24761;SDS011;12865;51.934;10.330;2022-08-21T01:36:34;5.28;;;4.80;;
24761;SDS011;12865;51.934;10.330;2022-08-21T01:39:20;4.45;;;4.05;;
24761;SDS011;12865;51.934;10.330;2022-08-21T01:42:06;4.38;;;4.07;;
24761;SDS011;12865;51.934;10.330;2022-08-21T01:44:52;4.40;;;4.10;;
24761;SDS011;12865;51.934;10.330;2022-08-21T01:47:38;4.43;;;3.97;;
24761;SDS011;12865;51.934;10.330;2022-08-21T01:50:23;4.82;;;4.35;;
24761;SDS011;12865;51.934;10.330;2022-08-21T01:53:09;4.63;;;4.07;;
24761;SDS011;12865;51.934;10.330;2022-08-21T01:55:55;4.38;;;3.97;;
24761;SDS011;12865;51.934;10.330;2022-08-21T01:58:43;4.15;;;3.78;;
24761;SDS011;12865;51.934;10.330;2022-08-21T02:01:30;4.75;;;4.28;;
24761;SDS011;12865;51.934;10.330;2022-08-21T02:04:16;4.55;;;4.15;;
24761;SDS011;12865;51.934;10.330;2022-08-21T02:07:02;4.70;;;4.40;;
24761;SDS011;12865;51.934;10.330;2022-08-21T02:09:48;5.25;;;4.75;;
24761;SDS011;12865;51.934;10.330;2022-08-21T02:12:34;5.40;;;4.90;;
24761;SDS011;12865;51.934;10.330;2022-08-21T02:15:20;5.68;;;5.15;;
24761;SDS011;12865;51.934;10.330;2022-08-21T02:18:06;5.97;;;5.25;;
24761;SDS011;12865;51.934;10.330;2022-08-21T02:20:52;4.30;;;3.90;;
24761;SDS011;12865;51.934;10.330;2022-08-21T02:23:38;4.38;;;4.03;;
24761;SDS011;12865;51.934;10.330;2022-08-21T02:26:24;5.28;;;4.40;;
24761;SDS011;12865;51.934;10.330;2022-08-21T02:29:09;4.30;;;4.00;;
24761;SDS011;12865;51.934;10.330;2022-08-21T02:31:55;4.65;;;4.35;;
24761;SDS011;12865;51.934;10.330;2022-08-21T02:34:41;6.53;;;4.65;;
24761;SDS011;12865;51.934;10.330;2022-08-21T02:37:27;5.07;;;4.57;;
24761;SDS011;12865;51.934;10.330;2022-08-21T02:40:12;5.10;;;4.63;;
24761;SDS011;12865;51.934;10.330;2022-08-21T02:42:59;5.15;;;4.65;;
24761;SDS011;12865;51.934;10.330;2022-08-21T02:45:46;5.22;;;4.82;;
24761;SDS011;12865;51.934;10.330;2022-08-21T02:48:33;6.05;;;4.57;;
24761;SDS011;12865;51.934;10.330;2022-08-21T02:51:19;8.30;;;5.38;;
24761;SDS011;12865;51.934;10.330;2022-08-21T02:54:05;4.82;;;4.40;;
24761;SDS011;12865;51.934;10.330;2022-08-21T02:56:50;5.25;;;4.75;;
24761;SDS011;12865;51.934;10.330;2022-08-21T02:59:36;5.15;;;4.70;;
24761;SDS011;12865;51.934;10.330;2022-08-21T03:02:22;4.47;;;4.10;;
24761;SDS011;12865;51.934;10.330;2022-08-21T03:05:08;4.72;;;4.32;;
24761;SDS011;12865;51.934;10.330;2022-08-21T03:07:55;5.30;;;4.38;;
24761;SDS011;12865;51.934;10.330;2022-08-21T03:10:42;5.70;;;4.30;;
24761;SDS011;12865;51.934;10.330;2022-08-21T03:13:30;4.93;;;4.43;;
24761;SDS011;12865;51.934;10.330;2022-08-21T03:16:17;3.83;;;3.53;;
24761;SDS011;12865;51.934;10.330;2022-08-21T03:19:04;4.53;;;4.13;;
24761;SDS011;12865;51.934;10.330;2022-08-21T03:21:50;3.92;;;3.58;;
24761;SDS011;12865;51.934;10.330;2022-08-21T03:24:36;4.40;;;3.78;;
24761;SDS011;12865;51.934;10.330;2022-08-21T03:27:23;4.68;;;4.35;;
24761;SDS011;12865;51.934;10.330;2022-08-21T03:30:10;4.55;;;4.25;;
24761;SDS011;12865;51.934;10.330;2022-08-21T03:32:57;4.68;;;4.10;;
24761;SDS011;12865;51.934;10.330;2022-08-21T03:35:45;4.65;;;4.00;;
24761;SDS011;12865;51.934;10.330;2022-08-21T03:38:41;4.18;;;3.88;;
24761;SDS011;12865;51.934;10.330;2022-08-21T03:41:27;4.65;;;4.22;;
24761;SDS011;12865;51.934;10.330;2022-08-21T03:44:13;4.72;;;4.10;;
24761;SDS011;12865;51.934;10.330;2022-08-21T03:46:59;5.20;;;4.15;;
24761;SDS011;12865;51.934;10.330;2022-08-21T03:49:44;4.68;;;4.28;;
24761;SDS011;12865;51.934;10.330;2022-08-21T03:52:30;4.22;;;3.80;;
24761;SDS011;12865;51.934;10.330;2022-08-21T03:55:16;4.43;;;4.03;;
24761;SDS011;12865;51.934;10.330;2022-08-21T03:58:02;4.10;;;3.70;;
24761;SDS011;12865;51.934;10.330;2022-08-21T04:00:49;4.82;;;4.28;;
24761;SDS011;12865;51.934;10.330;2022-08-21T04:03:37;5.30;;;4.30;;
24761;SDS011;12865;51.934;10.330;2022-08-21T04:06:23;4.97;;;3.83;;
24761;SDS011;12865;51.934;10.330;2022-08-21T04:09:09;6.20;;;4.10;;
24761;SDS011;12865;51.934;10.330;2022-08-21T04:11:54;6.35;;;4.20;;
24761;SDS011;12865;51.934;10.330;2022-08-21T04:14:40;4.25;;;3.85;;
24761;SDS011;12865;51.934;10.330;2022-08-21T04:17:27;4.68;;;4.28;;
24761;SDS011;12865;51.934;10.330;2022-08-21T04:20:12;3.90;;;3.67;;
24761;SDS011;12865;51.934;10.330;2022-08-21T04:22:58;4.18;;;3.88;;
24761;SDS011;12865;51.934;10.330;2022-08-21T04:25:44;4.68;;;4.25;;
24761;SDS011;12865;51.934;10.330;2022-08-21T04:28:29;3.78;;;3.58;;
24761;SDS011;12865;51.934;10.330;2022-08-21T04:31:15;4.65;;;3.83;;
24761;SDS011;12865;51.934;10.330;2022-08-21T04:34:01;4.10;;;3.75;;
24761;SDS011;12865;51.934;10.330;2022-08-21T04:36:46;4.35;;;3.95;;
24761;SDS011;12865;51.934;10.330;2022-08-21T04:39:32;4.30;;;3.80;;
24761;SDS011;12865;51.934;10.330;2022-08-21T04:42:18;4.22;;;3.83;;
24761;SDS011;12865;51.934;10.330;2022-08-21T04:45:04;5.32;;;3.55;;
24761;SDS011;12865;51.934;10.330;2022-08-21T04:47:50;4.40;;;4.00;;
24761;SDS011;12865;51.934;10.330;2022-08-21T04:53:45;5.60;;;4.32;;
24761;SDS011;12865;51.934;10.330;2022-08-21T04:56:35;4.68;;;4.15;;
24761;SDS011;12865;51.934;10.330;2022-08-21T04:59:31;5.70;;;4.20;;
24761;SDS011;12865;51.934;10.330;2022-08-21T05:02:26;6.82;;;4.28;;
24761;SDS011;12865;51.934;10.330;2022-08-21T05:05:12;4.43;;;4.13;;
24761;SDS011;12865;51.934;10.330;2022-08-21T05:07:58;4.15;;;3.63;;
24761;SDS011;12865;51.934;10.330;2022-08-21T05:10:46;4.77;;;4.27;;
24761;SDS011;12865;51.934;10.330;2022-08-21T05:13:32;4.60;;;4.20;;
24761;SDS011;12865;51.934;10.330;2022-08-21T05:16:18;4.88;;;4.30;;
24761;SDS011;12865;51.934;10.330;2022-08-21T05:19:05;4.57;;;3.85;;
24761;SDS011;12865;51.934;10.330;2022-08-21T05:21:51;4.82;;;4.43;;
24761;SDS011;12865;51.934;10.330;2022-08-21T05:24:37;5.72;;;4.32;;
24761;SDS011;12865;51.934;10.330;2022-08-21T05:27:23;5.63;;;4.40;;
24761;SDS011;12865;51.934;10.330;2022-08-21T05:30:09;4.88;;;4.35;;
24761;SDS011;12865;51.934;10.330;2022-08-21T05:32:56;4.53;;;4.13;;
24761;SDS011;12865;51.934;10.330;2022-08-21T05:35:43;3.88;;;3.65;;
24761;SDS011;12865;51.934;10.330;2022-08-21T05:38:29;6.80;;;3.95;;
24761;SDS011;12865;51.934;10.330;2022-08-21T05:41:14;4.00;;;3.70;;
24761;SDS011;12865;51.934;10.330;2022-08-21T05:44:00;4.50;;;4.10;;
24761;SDS011;12865;51.934;10.330;2022-08-21T05:46:46;4.60;;;4.20;;
24761;SDS011;12865;51.934;10.330;2022-08-21T05:49:32;4.20;;;3.80;;
24761;SDS011;12865;51.934;10.330;2022-08-21T05:52:19;4.20;;;3.90;;
24761;SDS011;12865;51.934;10.330;2022-08-21T05:55:06;4.85;;;4.07;;
24761;SDS011;12865;51.934;10.330;2022-08-21T05:57:52;4.47;;;3.95;;
24761;SDS011;12865;51.934;10.330;2022-08-21T06:00:38;4.97;;;4.28;;
24761;SDS011;12865;51.934;10.330;2022-08-21T06:03:26;4.63;;;4.15;;
24761;SDS011;12865;51.934;10.330;2022-08-21T06:06:13;4.75;;;4.30;;
24761;SDS011;12865;51.934;10.330;2022-08-21T06:08:59;4.53;;;4.10;;
24761;SDS011;12865;51.934;10.330;2022-08-21T06:11:44;5.22;;;4.60;;
24761;SDS011;12865;51.934;10.330;2022-08-21T06:14:30;5.07;;;4.10;;
24761;SDS011;12865;51.934;10.330;2022-08-21T06:17:16;5.07;;;4.40;;
24761;SDS011;12865;51.934;10.330;2022-08-21T06:20:02;4.10;;;3.80;;
24761;SDS011;12865;51.934;10.330;2022-08-21T06:22:49;4.55;;;4.03;;
24761;SDS011;12865;51.934;10.330;2022-08-21T06:25:35;4.63;;;4.20;;
24761;SDS011;12865;51.934;10.330;2022-08-21T06:28:21;4.43;;;4.00;;
24761;SDS011;12865;51.934;10.330;2022-08-21T06:31:11;5.25;;;4.15;;
24761;SDS011;12865;51.934;10.330;2022-08-21T06:33:56;4.05;;;3.58;;
24761;SDS011;12865;51.934;10.330;2022-08-21T06:36:42;3.78;;;3.53;;
24761;SDS011;12865;51.934;10.330;2022-08-21T06:39:28;4.57;;;4.18;;
24761;SDS011;12865;51.934;10.330;2022-08-21T06:42:15;3.80;;;3.60;;
24761;SDS011;12865;51.934;10.330;2022-08-21T06:45:01;5.47;;;3.97;;
24761;SDS011;12865;51.934;10.330;2022-08-21T06:47:47;6.63;;;4.25;;
24761;SDS011;12865;51.934;10.330;2022-08-21T06:50:32;5.22;;;3.92;;
24761;SDS011;12865;51.934;10.330;2022-08-21T06:53:19;5.50;;;4.00;;
24761;SDS011;12865;51.934;10.330;2022-08-21T06:56:05;4.93;;;4.00;;
24761;SDS011;12865;51.934;10.330;2022-08-21T06:58:51;4.00;;;3.70;;
24761;SDS011;12865;51.934;10.330;2022-08-21T07:01:37;4.55;;;3.85;;
24761;SDS011;12865;51.934;10.330;2022-08-21T07:04:24;4.45;;;3.83;;
24761;SDS011;12865;51.934;10.330;2022-08-21T07:07:10;4.30;;;3.83;;
24761;SDS011;12865;51.934;10.330;2022-08-21T07:09:56;6.43;;;3.67;;
24761;SDS011;12865;51.934;10.330;2022-08-21T07:12:41;4.10;;;3.70;;
24761;SDS011;12865;51.934;10.330;2022-08-21T07:15:28;4.53;;;3.75;;
24761;SDS011;12865;51.934;10.330;2022-08-21T07:18:14;6.32;;;3.95;;
24761;SDS011;12865;51.934;10.330;2022-08-21T07:21:01;4.55;;;3.70;;
24761;SDS011;12865;51.934;10.330;2022-08-21T07:23:49;4.37;;;3.43;;
24761;SDS011;12865;51.934;10.330;2022-08-21T07:26:36;7.03;;;5.22;;
24761;SDS011;12865;51.934;10.330;2022-08-21T07:29:22;7.70;;;6.13;;
24761;SDS011;12865;51.934;10.330;2022-08-21T07:32:08;5.75;;;5.25;;
24761;SDS011;12865;51.934;10.330;2022-08-21T07:34:53;7.30;;;5.25;;
24761;SDS011;12865;51.934;10.330;2022-08-21T07:37:39;5.65;;;5.13;;
24761;SDS011;12865;51.934;10.330;2022-08-21T07:40:25;5.20;;;4.70;;
24761;SDS011;12865;51.934;10.330;2022-08-21T07:43:11;5.07;;;4.22;;
24761;SDS011;12865;51.934;10.330;2022-08-21T07:45:56;6.25;;;4.05;;
24761;SDS011;12865;51.934;10.330;2022-08-21T07:48:42;7.60;;;4.05;;
24761;SDS011;12865;51.934;10.330;2022-08-21T07:51:28;5.32;;;3.50;;
24761;SDS011;12865;51.934;10.330;2022-08-21T07:54:14;4.35;;;3.22;;
24761;SDS011;12865;51.934;10.330;2022-08-21T07:57:00;5.40;;;3.40;;
24761;SDS011;12865;51.934;10.330;2022-08-21T07:59:46;7.55;;;3.50;;
24761;SDS011;12865;51.934;10.330;2022-08-21T08:02:32;7.95;;;3.55;;
24761;SDS011;12865;51.934;10.330;2022-08-21T08:05:19;5.03;;;3.50;;
24761;SDS011;12865;51.934;10.330;2022-08-21T08:08:07;5.18;;;3.15;;
24761;SDS011;12865;51.934;10.330;2022-08-21T08:10:53;4.88;;;3.78;;
24761;SDS011;12865;51.934;10.330;2022-08-21T08:13:42;5.40;;;3.30;;
24761;SDS011;12865;51.934;10.330;2022-08-21T08:16:32;4.55;;;3.28;;
24761;SDS011;12865;51.934;10.330;2022-08-21T08:19:18;4.05;;;2.90;;
24761;SDS011;12865;51.934;10.330;2022-08-21T08:22:14;9.40;;;3.50;;
24761;SDS011;12865;51.934;10.330;2022-08-21T08:25:10;5.57;;;3.13;;
24761;SDS011;12865;51.934;10.330;2022-08-21T08:27:56;5.50;;;3.25;;
24761;SDS011;12865;51.934;10.330;2022-08-21T08:33:10;5.13;;;2.60;;
24761;SDS011;12865;51.934;10.330;2022-08-21T08:35:55;8.77;;;3.08;;
24761;SDS011;12865;51.934;10.330;2022-08-21T08:38:41;7.57;;;3.17;;
24761;SDS011;12865;51.934;10.330;2022-08-21T08:41:27;7.32;;;3.00;;
24761;SDS011;12865;51.934;10.330;2022-08-21T08:44:13;5.30;;;2.40;;
24761;SDS011;12865;51.934;10.330;2022-08-21T08:46:58;6.47;;;2.15;;
24761;SDS011;12865;51.934;10.330;2022-08-21T08:49:52;8.02;;;2.65;;
24761;SDS011;12865;51.934;10.330;2022-08-21T08:52:46;4.35;;;2.50;;
24761;SDS011;12865;51.934;10.330;2022-08-21T08:55:42;4.65;;;2.42;;
24761;SDS011;12865;51.934;10.330;2022-08-21T08:58:37;5.10;;;2.53;;
24761;SDS011;12865;51.934;10.330;2022-08-21T09:01:27;10.90;;;3.15;;
24761;SDS011;12865;51.934;10.330;2022-08-21T09:04:13;7.75;;;2.90;;
24761;SDS011;12865;51.934;10.330;2022-08-21T09:10:11;6.70;;;3.17;;
24761;SDS011;12865;51.934;10.330;2022-08-21T09:16:17;6.95;;;2.92;;
24761;SDS011;12865;51.934;10.330;2022-08-21T09:22:43;7.57;;;3.88;;
24761;SDS011;12865;51.934;10.330;2022-08-21T09:25:42;9.68;;;4.05;;
24761;SDS011;12865;51.934;10.330;2022-08-21T09:28:41;10.20;;;4.40;;
24761;SDS011;12865;51.934;10.330;2022-08-21T09:31:29;10.35;;;4.20;;
24761;SDS011;12865;51.934;10.330;2022-08-21T09:34:24;10.93;;;4.35;;
24761;SDS011;12865;51.934;10.330;2022-08-21T09:37:18;8.00;;;4.28;;
24761;SDS011;12865;51.934;10.330;2022-08-21T09:40:13;6.65;;;3.88;;
24761;SDS011;12865;51.934;10.330;2022-08-21T09:43:25;7.13;;;4.45;;
24761;SDS011;12865;51.934;10.330;2022-08-21T09:46:11;9.60;;;4.32;;
24761;SDS011;12865;51.934;10.330;2022-08-21T09:49:05;6.65;;;3.72;;
24761;SDS011;12865;51.934;10.330;2022-08-21T09:51:52;6.57;;;3.67;;
24761;SDS011;12865;51.934;10.330;2022-08-21T09:54:39;6.63;;;3.83;;
24761;SDS011;12865;51.934;10.330;2022-08-21T09:57:27;8.57;;;3.88;;
24761;SDS011;12865;51.934;10.330;2022-08-21T10:03:19;9.02;;;4.10;;
24761;SDS011;12865;51.934;10.330;2022-08-21T10:06:07;10.00;;;3.65;;
24761;SDS011;12865;51.934;10.330;2022-08-21T10:09:12;9.70;;;3.88;;
24761;SDS011;12865;51.934;10.330;2022-08-21T10:12:08;8.82;;;3.67;;
24761;SDS011;12865;51.934;10.330;2022-08-21T10:20:52;8.55;;;3.80;;
24761;SDS011;12865;51.934;10.330;2022-08-21T10:24:22;8.93;;;3.58;;
24761;SDS011;12865;51.934;10.330;2022-08-21T10:30:13;9.38;;;4.55;;
24761;SDS011;12865;51.934;10.330;2022-08-21T10:33:12;9.18;;;3.25;;
24761;SDS011;12865;51.934;10.330;2022-08-21T10:45:41;7.38;;;3.60;;
24761;SDS011;12865;51.934;10.330;2022-08-21T10:48:58;9.80;;;3.63;;
24761;SDS011;12865;51.934;10.330;2022-08-21T10:58:11;5.80;;;3.20;;
24761;SDS011;12865;51.934;10.330;2022-08-21T11:01:13;8.10;;;3.30;;
24761;SDS011;12865;51.934;10.330;2022-08-21T11:04:12;6.95;;;3.25;;
24761;SDS011;12865;51.934;10.330;2022-08-21T11:07:11;6.07;;;3.30;;
24761;SDS011;12865;51.934;10.330;2022-08-21T11:13:35;8.50;;;4.35;;
24761;SDS011;12865;51.934;10.330;2022-08-21T11:16:44;7.30;;;3.42;;
24761;SDS011;12865;51.934;10.330;2022-08-21T11:19:35;6.45;;;3.50;;
24761;SDS011;12865;51.934;10.330;2022-08-21T11:28:24;7.88;;;3.38;;
24761;SDS011;12865;51.934;10.330;2022-08-21T11:31:34;5.10;;;3.25;;
24761;SDS011;12865;51.934;10.330;2022-08-21T11:38:08;6.15;;;3.10;;
24761;SDS011;12865;51.934;10.330;2022-08-21T11:41:02;5.53;;;3.13;;
24761;SDS011;12865;51.934;10.330;2022-08-21T11:44:18;7.30;;;2.63;;
24761;SDS011;12865;51.934;10.330;2022-08-21T11:47:11;6.47;;;3.10;;
24761;SDS011;12865;51.934;10.330;2022-08-21T11:50:18;9.43;;;3.30;;
24761;SDS011;12865;51.934;10.330;2022-08-21T11:58:56;4.95;;;2.78;;
24761;SDS011;12865;51.934;10.330;2022-08-21T12:01:47;6.33;;;2.50;;
24761;SDS011;12865;51.934;10.330;2022-08-21T12:04:42;6.30;;;2.92;;
24761;SDS011;12865;51.934;10.330;2022-08-21T12:07:41;7.10;;;2.58;;
24761;SDS011;12865;51.934;10.330;2022-08-21T12:10:36;4.72;;;2.45;;
24761;SDS011;12865;51.934;10.330;2022-08-21T12:13:29;4.55;;;2.47;;
24761;SDS011;12865;51.934;10.330;2022-08-21T12:16:28;6.90;;;3.47;;
24761;SDS011;12865;51.934;10.330;2022-08-21T12:24:50;5.07;;;2.75;;
24761;SDS011;12865;51.934;10.330;2022-08-21T12:30:39;4.18;;;2.30;;
24761;SDS011;12865;51.934;10.330;2022-08-21T12:33:30;4.03;;;2.08;;
24761;SDS011;12865;51.934;10.330;2022-08-21T12:36:19;4.28;;;2.20;;
24761;SDS011;12865;51.934;10.330;2022-08-21T12:39:12;6.57;;;2.38;;
24761;SDS011;12865;51.934;10.330;2022-08-21T12:47:57;5.80;;;2.28;;
24761;SDS011;12865;51.934;10.330;2022-08-21T12:50:54;4.40;;;1.88;;
24761;SDS011;12865;51.934;10.330;2022-08-21T12:53:55;4.05;;;2.20;;
24761;SDS011;12865;51.934;10.330;2022-08-21T12:56:43;2.55;;;1.90;;
24761;SDS011;12865;51.934;10.330;2022-08-21T12:59:41;3.92;;;2.00;;
24761;SDS011;12865;51.934;10.330;2022-08-21T13:02:31;4.25;;;1.75;;
24761;SDS011;12865;51.934;10.330;2022-08-21T13:05:27;3.40;;;1.80;;
24761;SDS011;12865;51.934;10.330;2022-08-21T13:08:15;3.78;;;1.75;;
24761;SDS011;12865;51.934;10.330;2022-08-21T13:11:04;3.17;;;1.65;;
24761;SDS011;12865;51.934;10.330;2022-08-21T13:13:51;2.85;;;2.00;;
24761;SDS011;12865;51.934;10.330;2022-08-21T13:16:38;4.22;;;1.80;;
24761;SDS011;12865;51.934;10.330;2022-08-21T13:19:25;1.88;;;1.65;;
24761;SDS011;12865;51.934;10.330;2022-08-21T13:22:12;2.85;;;1.83;;
24761;SDS011;12865;51.934;10.330;2022-08-21T13:25:01;2.88;;;1.80;;
24761;SDS011;12865;51.934;10.330;2022-08-21T13:28:04;3.10;;;1.90;;
24761;SDS011;12865;51.934;10.330;2022-08-21T13:30:54;2.65;;;1.67;;
24761;SDS011;12865;51.934;10.330;2022-08-21T13:33:41;2.63;;;1.80;;
24761;SDS011;12865;51.934;10.330;2022-08-21T13:36:29;5.18;;;2.03;;
24761;SDS011;12865;51.934;10.330;2022-08-21T13:39:19;3.25;;;1.70;;
24761;SDS011;12865;51.934;10.330;2022-08-21T13:42:10;3.80;;;1.80;;
24761;SDS011;12865;51.934;10.330;2022-08-21T13:44:57;5.07;;;1.80;;
24761;SDS011;12865;51.934;10.330;2022-08-21T13:47:43;3.15;;;1.80;;
24761;SDS011;12865;51.934;10.330;2022-08-21T13:50:40;4.28;;;1.77;;
24761;SDS011;12865;51.934;10.330;2022-08-21T13:53:35;5.55;;;2.83;;
24761;SDS011;12865;51.934;10.330;2022-08-21T13:56:41;3.42;;;2.20;;
24761;SDS011;12865;51.934;10.330;2022-08-21T13:59:30;4.80;;;2.05;;
24761;SDS011;12865;51.934;10.330;2022-08-21T14:02:22;1.95;;;1.67;;
24761;SDS011;12865;51.934;10.330;2022-08-21T14:05:29;5.40;;;2.30;;
24761;SDS011;12865;51.934;10.330;2022-08-21T14:11:14;4.60;;;2.10;;
24761;SDS011;12865;51.934;10.330;2022-08-21T14:14:01;2.88;;;1.80;;
24761;SDS011;12865;51.934;10.330;2022-08-21T14:16:55;3.90;;;2.28;;
24761;SDS011;12865;51.934;10.330;2022-08-21T14:19:45;4.32;;;1.85;;
24761;SDS011;12865;51.934;10.330;2022-08-21T14:22:42;5.50;;;1.90;;
24761;SDS011;12865;51.934;10.330;2022-08-21T14:25:36;2.70;;;2.10;;
24761;SDS011;12865;51.934;10.330;2022-08-21T14:28:29;2.65;;;1.67;;
24761;SDS011;12865;51.934;10.330;2022-08-21T14:31:18;3.92;;;1.55;;
24761;SDS011;12865;51.934;10.330;2022-08-21T14:34:05;2.95;;;1.83;;
24761;SDS011;12865;51.934;10.330;2022-08-21T14:36:51;2.95;;;1.83;;
24761;SDS011;12865;51.934;10.330;2022-08-21T14:39:37;3.25;;;1.73;;
24761;SDS011;12865;51.934;10.330;2022-08-21T14:42:23;3.50;;;1.27;;
24761;SDS011;12865;51.934;10.330;2022-08-21T14:45:30;4.22;;;1.63;;
24761;SDS011;12865;51.934;10.330;2022-08-21T14:48:16;3.80;;;1.67;;
24761;SDS011;12865;51.934;10.330;2022-08-21T14:51:01;2.05;;;1.40;;
24761;SDS011;12865;51.934;10.330;2022-08-21T14:53:47;4.65;;;1.60;;
24761;SDS011;12865;51.934;10.330;2022-08-21T14:56:33;3.67;;;1.83;;
24761;SDS011;12865;51.934;10.330;2022-08-21T14:59:20;6.95;;;1.80;;
24761;SDS011;12865;51.934;10.330;2022-08-21T15:02:06;2.30;;;1.70;;
24761;SDS011;12865;51.934;10.330;2022-08-21T15:04:53;3.70;;;1.92;;
24761;SDS011;12865;51.934;10.330;2022-08-21T15:07:39;3.53;;;1.80;;
24761;SDS011;12865;51.934;10.330;2022-08-21T15:10:24;2.97;;;2.05;;
24761;SDS011;12865;51.934;10.330;2022-08-21T15:13:10;2.67;;;1.77;;
24761;SDS011;12865;51.934;10.330;2022-08-21T15:15:56;5.63;;;1.50;;
24761;SDS011;12865;51.934;10.330;2022-08-21T15:18:42;2.55;;;1.40;;
24761;SDS011;12865;51.934;10.330;2022-08-21T15:21:28;3.30;;;1.60;;
24761;SDS011;12865;51.934;10.330;2022-08-21T15:24:14;3.75;;;1.80;;
24761;SDS011;12865;51.934;10.330;2022-08-21T15:27:01;3.80;;;1.48;;
24761;SDS011;12865;51.934;10.330;2022-08-21T15:29:48;3.57;;;1.50;;
24761;SDS011;12865;51.934;10.330;2022-08-21T15:32:34;3.80;;;2.63;;
24761;SDS011;12865;51.934;10.330;2022-08-21T15:35:20;3.65;;;1.60;;
24761;SDS011;12865;51.934;10.330;2022-08-21T15:38:05;3.38;;;1.60;;
24761;SDS011;12865;51.934;10.330;2022-08-21T15:40:51;4.72;;;1.60;;
24761;SDS011;12865;51.934;10.330;2022-08-21T15:43:42;5.68;;;1.65;;
24761;SDS011;12865;51.934;10.330;2022-08-21T15:46:32;2.92;;;1.50;;
24761;SDS011;12865;51.934;10.330;2022-08-21T15:49:18;3.40;;;1.55;;
24761;SDS011;12865;51.934;10.330;2022-08-21T15:52:03;5.20;;;1.67;;
24761;SDS011;12865;51.934;10.330;2022-08-21T15:54:49;6.47;;;1.70;;
24761;SDS011;12865;51.934;10.330;2022-08-21T15:57:36;5.05;;;1.40;;
24761;SDS011;12865;51.934;10.330;2022-08-21T16:00:27;3.88;;;1.63;;
24761;SDS011;12865;51.934;10.330;2022-08-21T16:03:16;2.78;;;1.30;;
24761;SDS011;12865;51.934;10.330;2022-08-21T16:06:06;3.10;;;1.70;;
24761;SDS011;12865;51.934;10.330;2022-08-21T16:08:52;3.15;;;1.52;;
24761;SDS011;12865;51.934;10.330;2022-08-21T16:11:38;4.68;;;1.73;;
24761;SDS011;12865;51.934;10.330;2022-08-21T16:14:24;3.80;;;1.40;;
24761;SDS011;12865;51.934;10.330;2022-08-21T16:17:10;2.40;;;1.45;;
24761;SDS011;12865;51.934;10.330;2022-08-21T16:19:56;4.00;;;1.77;;
24761;SDS011;12865;51.934;10.330;2022-08-21T16:22:43;3.85;;;1.60;;
24761;SDS011;12865;51.934;10.330;2022-08-21T16:25:29;4.57;;;1.60;;
24761;SDS011;12865;51.934;10.330;2022-08-21T16:28:15;3.45;;;1.55;;
24761;SDS011;12865;51.934;10.330;2022-08-21T16:31:04;2.72;;;1.60;;
24761;SDS011;12865;51.934;10.330;2022-08-21T16:33:50;3.83;;;1.52;;
24761;SDS011;12865;51.934;10.330;2022-08-21T16:36:40;2.42;;;1.50;;
24761;SDS011;12865;51.934;10.330;2022-08-21T16:39:26;4.18;;;1.80;;
24761;SDS011;12865;51.934;10.330;2022-08-21T16:42:12;2.85;;;2.00;;
24761;SDS011;12865;51.934;10.330;2022-08-21T16:45:04;3.90;;;1.80;;
24761;SDS011;12865;51.934;10.330;2022-08-21T16:47:51;4.90;;;1.77;;
24761;SDS011;12865;51.934;10.330;2022-08-21T16:50:37;3.03;;;1.83;;
24761;SDS011;12865;51.934;10.330;2022-08-21T16:53:23;1.40;;;1.30;;
24761;SDS011;12865;51.934;10.330;2022-08-21T16:56:09;2.85;;;1.70;;
24761;SDS011;12865;51.934;10.330;2022-08-21T16:58:57;3.58;;;1.98;;
24761;SDS011;12865;51.934;10.330;2022-08-21T17:01:43;2.47;;;1.40;;
24761;SDS011;12865;51.934;10.330;2022-08-21T17:04:30;3.20;;;1.80;;
24761;SDS011;12865;51.934;10.330;2022-08-21T17:07:15;7.15;;;1.90;;
24761;SDS011;12865;51.934;10.330;2022-08-21T17:10:01;9.27;;;1.90;;
24761;SDS011;12865;51.934;10.330;2022-08-21T17:12:56;3.72;;;1.90;;
24761;SDS011;12865;51.934;10.330;2022-08-21T17:15:43;3.38;;;1.70;;
24761;SDS011;12865;51.934;10.330;2022-08-21T17:18:28;2.42;;;1.60;;
24761;SDS011;12865;51.934;10.330;2022-08-21T17:21:14;5.65;;;1.98;;
24761;SDS011;12865;51.934;10.330;2022-08-21T17:24:00;3.65;;;1.73;;
24761;SDS011;12865;51.934;10.330;2022-08-21T17:26:46;3.67;;;1.50;;
24761;SDS011;12865;51.934;10.330;2022-08-21T17:29:33;3.20;;;1.65;;
24761;SDS011;12865;51.934;10.330;2022-08-21T17:35:07;4.95;;;1.63;;
24761;SDS011;12865;51.934;10.330;2022-08-21T17:37:54;5.97;;;2.00;;
24761;SDS011;12865;51.934;10.330;2022-08-21T17:40:39;4.50;;;1.80;;
24761;SDS011;12865;51.934;10.330;2022-08-21T17:43:25;3.38;;;1.75;;
24761;SDS011;12865;51.934;10.330;2022-08-21T17:46:13;3.13;;;1.70;;
24761;SDS011;12865;51.934;10.330;2022-08-21T17:49:03;6.57;;;2.08;;
24761;SDS011;12865;51.934;10.330;2022-08-21T17:51:50;3.85;;;1.80;;
24761;SDS011;12865;51.934;10.330;2022-08-21T17:54:36;2.60;;;1.90;;
24761;SDS011;12865;51.934;10.330;2022-08-21T17:57:22;2.67;;;1.92;;
24761;SDS011;12865;51.934;10.330;2022-08-21T18:00:10;5.80;;;2.00;;
24761;SDS011;12865;51.934;10.330;2022-08-21T18:03:00;3.20;;;1.60;;